Time;durP1;ratioP1;P1;durP2;ratioP2;P2;SDS_P1;SDS_P2;PMS_P1;PMS_P2;Temp;Humidity;BMP_temperature;BMP_pressure;BME280_temperature;BME280_humidity;BME280_pressure;Samples;Min_cycle;Max_cycle;Signal;HPM_P1;HPM_P2
2023/04/25 00:01:17;;;;;;;10.23;2.97;;;6.50;99.90;;;;;;5072444;28;20152;-83
2023/04/25 00:03:43;;;;;;;18.08;3.35;;;6.50;99.90;;;;;;5055735;28;20511;-82
2023/04/25 00:06:08;;;;;;;15.50;3.67;;;6.40;99.90;;;;;;5055851;28;20094;-83
2023/04/25 00:08:34;;;;;;;19.40;4.10;;;6.40;99.90;;;;;;5055731;28;20048;-82
2023/04/25 00:11:00;;;;;;;14.57;3.40;;;6.30;99.90;;;;;;5055441;28;20048;-83
2023/04/25 00:13:26;;;;;;;8.32;2.78;;;6.40;99.90;;;;;;5072192;28;20435;-84
2023/04/25 00:15:56;;;;;;;11.93;2.83;;;6.40;99.90;;;;;;5073340;28;20106;-83
2023/04/25 00:18:22;;;;;;;15.63;3.38;;;6.40;99.90;;;;;;5072466;28;20128;-83
2023/04/25 00:20:48;;;;;;;20.92;3.30;;;6.40;99.90;;;;;;5072765;28;20459;-83
2023/04/25 00:23:17;;;;;;;11.98;3.00;;;6.40;99.90;;;;;;5072728;28;20040;-83
2023/04/25 00:25:48;;;;;;;13.73;3.45;;;6.40;99.90;;;;;;5039794;28;20059;-83
2023/04/25 00:28:14;;;;;;;10.85;3.53;;;6.40;99.90;;;;;;5072412;28;20032;-83
2023/04/25 00:30:41;;;;;;;10.55;3.05;;;7.30;99.90;;;;;;5055844;28;20047;-83
2023/04/25 00:33:07;;;;;;;11.63;4.18;;;6.40;99.90;;;;;;5072200;28;20055;-83
2023/04/25 00:35:33;;;;;;;13.02;3.67;;;6.30;99.90;;;;;;5072194;28;20049;-84
2023/04/25 00:37:59;;;;;;;11.13;3.70;;;7.40;99.90;;;;;;5073102;28;20489;-83
2023/04/25 00:40:24;;;;;;;20.35;3.63;;;6.30;99.90;;;;;;5072177;28;20117;-83
2023/04/25 00:42:51;;;;;;;9.15;3.30;;;6.30;99.90;;;;;;5072046;28;20047;-83
2023/04/25 00:45:17;;;;;;;17.20;3.78;;;6.20;99.90;;;;;;5073174;28;20128;-83
2023/04/25 00:47:44;;;;;;;16.75;3.22;;;6.10;99.90;;;;;;5072936;28;20163;-83
2023/04/25 00:50:10;;;;;;;11.90;3.10;;;6.10;99.90;;;;;;5055329;28;20064;-83
2023/04/25 00:52:38;;;;;;;13.98;3.35;;;6.00;99.90;;;;;;5055729;28;20040;-83
2023/04/25 00:55:04;;;;;;;15.25;2.78;;;6.00;99.90;;;;;;5073684;28;20055;-84
2023/04/25 00:57:29;;;;;;;11.68;3.95;;;5.90;99.90;;;;;;5073032;28;20041;-83
2023/04/25 00:59:56;;;;;;;12.00;3.22;;;5.90;99.90;;;;;;5072438;28;20102;-83
2023/04/25 01:02:21;;;;;;;15.90;3.53;;;5.80;99.90;;;;;;5055731;28;20048;-83
2023/04/25 01:04:48;;;;;;;21.00;3.50;;;6.20;99.90;;;;;;5073496;28;20127;-83
2023/04/25 01:07:14;;;;;;;11.40;3.60;;;6.60;99.90;;;;;;5071768;28;20044;-83
2023/04/25 01:09:41;;;;;;;13.77;3.30;;;5.70;99.90;;;;;;5055491;28;20048;-83
2023/04/25 01:12:07;;;;;;;9.13;3.45;;;5.70;99.90;;;;;;5072199;28;20084;-83
2023/04/25 01:14:33;;;;;;;11.13;3.27;;;5.70;99.90;;;;;;5073025;28;20055;-83
2023/04/25 01:16:59;;;;;;;11.90;3.13;;;5.70;99.90;;;;;;5072720;28;20393;-83
2023/04/25 01:19:25;;;;;;;10.73;3.50;;;5.70;99.90;;;;;;5072962;28;20044;-84
2023/04/25 01:21:51;;;;;;;14.45;3.67;;;5.70;99.90;;;;;;5055817;28;20045;-84
2023/04/25 01:24:17;;;;;;;13.48;3.05;;;5.70;99.90;;;;;;5075613;28;20048;-83
2023/04/25 01:26:49;;;;;;;15.63;3.80;;;5.70;99.90;;;;;;5058846;28;20089;-82
2023/04/25 01:29:19;;;;;;;11.77;3.05;;;8.00;99.90;;;;;;5075556;28;20123;-83
2023/04/25 01:31:45;;;;;;;13.15;3.50;;;6.40;99.90;;;;;;5076274;28;20154;-83
2023/04/25 01:34:12;;;;;;;11.73;3.30;;;5.70;99.90;;;;;;5075443;28;20037;-82
2023/04/25 01:36:37;;;;;;;10.88;3.58;;;5.70;99.90;;;;;;5076175;28;20048;-82
2023/04/25 01:39:03;;;;;;;13.30;3.38;;;5.60;99.90;;;;;;5074926;28;20044;-83
2023/04/25 01:41:29;;;;;;;9.98;2.60;;;5.80;99.90;;;;;;5075061;28;20377;-83
2023/04/25 01:43:55;;;;;;;19.67;3.53;;;5.60;99.90;;;;;;5075051;28;20044;-83
2023/04/25 01:46:21;;;;;;;11.48;2.95;;;5.50;99.90;;;;;;5076267;28;20040;-83
2023/04/25 01:48:47;;;;;;;7.05;2.75;;;5.50;99.90;;;;;;5058419;28;20074;-83
2023/04/25 01:51:13;;;;;;;13.57;3.00;;;5.40;99.90;;;;;;5075600;28;20048;-83
2023/04/25 01:53:39;;;;;;;14.77;3.73;;;5.40;99.90;;;;;;5074624;28;20477;-83
2023/04/25 01:56:05;;;;;;;11.43;3.30;;;5.40;99.90;;;;;;5074564;28;20342;-83
2023/04/25 01:58:31;;;;;;;8.35;3.08;;;5.40;99.90;;;;;;5074422;28;20289;-83
2023/04/25 02:00:57;;;;;;;13.18;3.60;;;5.30;99.90;;;;;;5075963;28;20040;-84
2023/04/25 02:03:22;;;;;;;8.73;2.60;;;5.40;99.90;;;;;;5058258;28;20081;-83
2023/04/25 02:05:48;;;;;;;14.23;3.50;;;5.30;99.90;;;;;;5075927;28;20124;-83
2023/04/25 02:08:14;;;;;;;11.15;3.03;;;5.30;99.90;;;;;;5058547;28;20041;-83
2023/04/25 02:10:39;;;;;;;11.35;3.10;;;5.30;99.90;;;;;;5076064;28;20037;-83
2023/04/25 02:13:05;;;;;;;11.30;3.92;;;6.40;99.90;;;;;;5058143;28;20041;-84
2023/04/25 02:15:31;;;;;;;16.38;4.07;;;5.30;99.90;;;;;;5075034;28;20086;-83
2023/04/25 02:17:57;;;;;;;17.02;3.88;;;5.30;99.90;;;;;;5058066;28;20597;-83
2023/04/25 02:20:24;;;;;;;16.43;3.57;;;5.30;99.90;;;;;;5075041;28;20052;-83
2023/04/25 02:22:50;;;;;;;12.50;3.67;;;5.30;99.90;;;;;;5074670;28;20086;-84
2023/04/25 02:25:17;;;;;;;13.45;3.45;;;5.30;99.90;;;;;;5075363;28;20052;-83
2023/04/25 02:27:43;;;;;;;13.07;3.22;;;5.30;99.90;;;;;;5075527;28;20049;-83
2023/04/25 02:30:09;;;;;;;13.00;3.20;;;6.10;99.90;;;;;;5057912;28;20056;-82
2023/04/25 02:32:35;;;;;;;13.75;3.47;;;5.30;99.90;;;;;;5074055;28;20044;-83
2023/04/25 02:35:03;;;;;;;8.35;3.45;;;5.40;99.90;;;;;;5074757;28;20093;-83
2023/04/25 02:37:30;;;;;;;15.18;3.53;;;5.40;99.90;;;;;;5073922;28;20040;-83
2023/04/25 02:39:56;;;;;;;10.20;3.40;;;5.30;99.90;;;;;;5057529;28;20051;-82
2023/04/25 02:42:21;;;;;;;11.57;3.00;;;5.40;99.90;;;;;;5074626;28;20040;-83
2023/04/25 02:44:47;;;;;;;18.33;3.60;;;5.70;99.90;;;;;;5075101;28;20416;-83
2023/04/25 02:47:13;;;;;;;10.00;2.80;;;5.40;99.90;;;;;;5074113;28;20041;-83
2023/04/25 02:49:38;;;;;;;14.35;3.83;;;5.40;99.90;;;;;;5074905;28;20057;-84
2023/04/25 02:52:04;;;;;;;12.40;3.58;;;5.40;99.90;;;;;;5073744;28;20400;-83
2023/04/25 02:54:30;;;;;;;18.52;4.30;;;6.00;99.90;;;;;;5073536;28;20177;-84
2023/04/25 02:56:55;;;;;;;16.40;3.40;;;5.40;99.90;;;;;;5073254;28;20123;-83
2023/04/25 02:59:21;;;;;;;17.40;3.83;;;5.40;99.90;;;;;;5073657;28;20153;-83
2023/04/25 03:01:47;;;;;;;12.00;3.25;;;5.40;99.90;;;;;;5073250;28;20041;-83
2023/04/25 03:04:12;;;;;;;14.80;3.60;;;5.40;99.90;;;;;;5074176;28;20101;-84
2023/04/25 03:06:38;;;;;;;13.45;3.53;;;5.40;99.90;;;;;;5073575;28;20055;-83
2023/04/25 03:09:04;;;;;;;12.98;3.60;;;7.50;99.90;;;;;;5057050;28;20056;-83
2023/04/25 03:11:29;;;;;;;12.40;3.10;;;5.40;99.90;;;;;;5073954;28;20127;-84
2023/04/25 03:13:57;;;;;;;10.40;3.10;;;5.50;99.90;;;;;;5073521;28;20040;-82
2023/04/25 03:16:23;;;;;;;17.70;2.90;;;5.80;99.90;;;;;;5040498;28;20040;-83
2023/04/25 03:18:50;;;;;;;21.48;3.25;;;5.40;99.90;;;;;;5073504;28;20131;-83
2023/04/25 03:21:16;;;;;;;12.68;3.38;;;5.50;99.90;;;;;;5072969;28;20264;-83
2023/04/25 03:23:42;;;;;;;14.48;3.50;;;5.40;99.90;;;;;;5074121;28;20040;-83
2023/04/25 03:26:07;;;;;;;11.95;2.72;;;6.10;99.90;;;;;;5072767;28;20131;-83
2023/04/25 03:28:33;;;;;;;9.93;3.10;;;5.40;99.90;;;;;;5073271;28;20048;-84
2023/04/25 03:30:58;;;;;;;10.77;2.35;;;5.40;99.90;;;;;;5072903;28;20070;-83
2023/04/25 03:33:24;;;;;;;9.85;2.45;;;5.40;99.90;;;;;;5073844;28;20044;-83
2023/04/25 03:35:50;;;;;;;7.35;2.50;;;5.40;99.90;;;;;;5072713;28;20162;-84
2023/04/25 03:38:15;;;;;;;14.73;3.25;;;5.40;99.90;;;;;;5073969;28;20040;-83
2023/04/25 03:40:41;;;;;;;6.63;2.40;;;5.40;99.90;;;;;;5072529;28;20040;-83
2023/04/25 03:43:07;;;;;;;9.02;3.25;;;5.40;99.90;;;;;;5073894;28;20480;-84
2023/04/25 03:45:32;;;;;;;6.38;2.45;;;5.40;99.90;;;;;;5055828;28;20049;-83
2023/04/25 03:47:58;;;;;;;18.17;3.38;;;5.40;99.90;;;;;;5073611;28;20055;-83
2023/04/25 03:50:24;;;;;;;7.28;2.15;;;5.40;99.90;;;;;;5073351;28;20052;-84
2023/04/25 03:52:49;;;;;;;11.55;3.17;;;5.60;99.90;;;;;;5056059;28;20059;-83
2023/04/25 03:55:15;;;;;;;10.27;2.50;;;6.20;99.90;;;;;;5072462;28;20051;-84
2023/04/25 03:57:41;;;;;;;8.73;2.47;;;5.40;99.90;;;;;;5072173;28;20040;-83
2023/04/25 04:00:07;;;;;;;10.38;2.80;;;6.00;99.90;;;;;;5073745;28;20082;-82
2023/04/25 04:02:34;;;;;;;7.57;2.38;;;5.30;99.90;;;;;;5056023;28;20094;-82
2023/04/25 04:05:00;;;;;;;13.00;2.63;;;5.40;99.90;;;;;;5072993;28;20127;-82
2023/04/25 04:07:26;;;;;;;10.32;3.25;;;5.30;99.90;;;;;;5072835;28;20488;-82
2023/04/25 04:09:52;;;;;;;12.25;2.22;;;5.30;99.90;;;;;;5071955;28;20087;-82
2023/04/25 04:12:17;;;;;;;10.32;2.30;;;5.30;99.90;;;;;;5072676;28;20041;-83
2023/04/25 04:14:43;;;;;;;6.93;1.88;;;5.30;99.90;;;;;;5055820;28;20535;-83
2023/04/25 04:17:09;;;;;;;10.30;2.30;;;5.30;99.90;;;;;;5055654;28;20472;-82
2023/04/25 04:19:35;;;;;;;8.10;2.47;;;5.30;99.90;;;;;;5072417;28;20082;-83
2023/04/25 04:22:00;;;;;;;11.65;2.85;;;5.50;99.90;;;;;;5073475;28;20091;-83
2023/04/25 04:24:26;;;;;;;9.82;2.38;;;5.30;99.90;;;;;;5072226;28;20127;-83
2023/04/25 04:26:51;;;;;;;5.93;3.00;;;5.30;99.90;;;;;;5072304;28;20504;-83
2023/04/25 04:29:20;;;;;;;12.77;1.98;;;5.20;99.90;;;;;;5072226;28;20044;-82
2023/04/25 04:31:50;;;;;;;8.13;2.00;;;5.20;99.90;;;;;;5073429;28;20048;-82
2023/04/25 04:34:17;;;;;;;8.52;2.20;;;5.20;99.90;;;;;;5071921;28;20037;-83
2023/04/25 04:36:45;;;;;;;6.47;2.40;;;;;;;;;;5072088;28;20172;-83
2023/04/25 04:39:12;;;;;;;8.55;1.98;;;5.20;99.90;;;;;;5071924;28;20143;-82
2023/04/25 04:41:37;;;;;;;8.60;2.40;;;5.20;99.90;;;;;;5055585;28;20040;-83
2023/04/25 04:44:03;;;;;;;5.70;2.33;;;5.20;99.90;;;;;;5073325;28;20037;-82
2023/04/25 04:46:30;;;;;;;4.13;1.63;;;5.10;99.90;;;;;;5055370;28;20071;-85
2023/04/25 04:48:58;;;;;;;6.05;2.00;;;5.20;99.90;;;;;;5071728;28;20044;-85
2023/04/25 04:51:24;;;;;;;6.13;1.88;;;5.10;99.90;;;;;;5055425;28;20102;-84
2023/04/25 04:53:49;;;;;;;4.45;2.47;;;5.20;99.90;;;;;;5071570;28;20056;-87
2023/04/25 04:56:15;;;;;;;11.60;2.15;;;5.20;99.90;;;;;;5075104;28;20076;-85
2023/04/25 04:58:41;;;;;;;13.90;2.67;;;5.20;99.90;;;;;;5078181;28;20040;-86
2023/04/25 05:01:07;;;;;;;12.60;2.97;;;5.20;99.90;;;;;;5078142;28;20481;-86
2023/04/25 05:03:32;;;;;;;8.83;2.70;;;5.20;99.90;;;;;;5078214;28;20052;-84
2023/04/25 05:05:58;;;;;;;11.13;2.30;;;5.20;99.90;;;;;;5078862;28;20747;-79
2023/04/25 05:08:24;;;;;;;7.38;2.25;;;6.20;99.90;;;;;;5077919;28;20109;-84
2023/04/25 05:10:49;;;;;;;5.78;2.13;;;5.40;99.90;;;;;;5079407;28;20049;-85
2023/04/25 05:13:15;;;;;;;5.50;1.85;;;5.60;99.90;;;;;;5078299;28;20488;-87
2023/04/25 05:15:41;;;;;;;5.82;2.00;;;5.60;99.90;;;;;;5060526;28;20040;-86
2023/04/25 05:18:06;;;;;;;2.33;1.63;;;5.60;99.90;;;;;;5059719;28;20048;-86
2023/04/25 05:20:32;;;;;;;5.25;2.00;;;5.70;99.90;;;;;;5075626;28;20073;-87
2023/04/25 05:22:57;;;;;;;7.80;1.92;;;5.60;99.90;;;;;;5075164;28;20091;-85
2023/04/25 05:25:23;;;;;;;5.65;1.83;;;6.00;99.90;;;;;;5076219;28;20132;-82
2023/04/25 05:27:50;;;;;;;7.78;1.98;;;5.60;99.90;;;;;;5076531;28;20392;-86
2023/04/25 05:30:16;;;;;;;5.05;2.20;;;5.60;99.90;;;;;;5059066;28;20045;-87
2023/04/25 05:32:42;;;;;;;4.07;1.60;;;5.60;99.90;;;;;;5058673;28;20040;-81
2023/04/25 05:35:08;;;;;;;6.43;1.70;;;5.60;99.90;;;;;;5075316;28;20071;-81
2023/04/25 05:37:34;;;;;;;6.15;2.25;;;5.60;99.90;;;;;;5075865;28;20090;-81
2023/04/25 05:40:00;;;;;;;9.68;2.97;;;5.70;99.90;;;;;;5076098;28;20052;-87
2023/04/25 05:42:25;;;;;;;10.85;2.33;;;5.60;99.90;;;;;;5058733;28;20037;-83
2023/04/25 05:44:51;;;;;;;10.57;1.90;;;6.10;99.90;;;;;;5075835;28;20044;-82
2023/04/25 05:47:17;;;;;;;9.65;2.03;;;5.80;99.90;;;;;;5074935;28;20465;-82
2023/04/25 05:49:42;;;;;;;7.70;2.30;;;5.60;99.90;;;;;;5058007;28;20059;-82
2023/04/25 05:52:08;;;;;;;4.05;1.92;;;5.60;99.90;;;;;;5075692;28;20523;-83
2023/04/25 05:54:33;;;;;;;5.43;1.98;;;5.70;99.90;;;;;;5075459;28;20044;-82
2023/04/25 05:56:59;;;;;;;6.68;1.75;;;5.70;99.90;;;;;;5075778;28;20040;-81
2023/04/25 05:59:25;;;;;;;3.67;2.00;;;5.70;99.90;;;;;;5074594;28;20057;-82
2023/04/25 06:01:51;;;;;;;6.78;1.85;;;5.80;99.90;;;;;;5075769;28;20044;-81
2023/04/25 06:04:17;;;;;;;4.95;2.10;;;5.80;99.90;;;;;;5075308;28;20082;-83
2023/04/25 06:06:42;;;;;;;5.45;1.75;;;5.90;99.90;;;;;;5075242;28;20040;-85
2023/04/25 06:09:08;;;;;;;5.00;2.55;;;5.90;99.90;;;;;;5074462;28;20048;-84
2023/04/25 06:11:33;;;;;;;8.13;1.92;;;6.00;99.90;;;;;;5074990;28;20051;-82
2023/04/25 06:14:00;;;;;;;3.85;1.85;;;6.20;99.90;;;;;;5075979;28;20075;-81
2023/04/25 06:16:25;;;;;;;7.38;2.25;;;6.30;99.90;;;;;;5075766;28;20069;-82
2023/04/25 06:18:55;;;;;;;8.43;2.28;;;6.50;99.90;;;;;;5041659;28;20119;-80
2023/04/25 06:21:20;;;;;;;7.53;2.33;;;6.60;99.90;;;;;;5073560;28;20068;-82
2023/04/25 06:23:46;;;;;;;6.40;1.95;;;6.70;99.90;;;;;;5073787;28;20080;-82
2023/04/25 06:26:11;;;;;;;8.02;2.13;;;6.70;99.90;;;;;;5075086;28;20055;-82
2023/04/25 06:28:37;;;;;;;8.18;1.95;;;6.80;99.90;;;;;;5072414;28;20036;-82
2023/04/25 06:31:03;;;;;;;5.78;1.98;;;6.80;99.90;;;;;;5074849;28;20048;-81
2023/04/25 06:33:28;;;;;;;9.93;2.15;;;6.80;99.90;;;;;;5074899;28;20055;-81
2023/04/25 06:35:54;;;;;;;10.25;2.53;;;6.80;99.90;;;;;;5074755;28;20149;-81
2023/04/25 06:38:20;;;;;;;7.47;2.55;;;6.90;99.90;;;;;;5075094;28;20044;-81
2023/04/25 06:40:45;;;;;;;8.70;2.53;;;7.00;99.90;;;;;;5075484;28;20094;-82
2023/04/25 06:43:11;;;;;;;6.78;1.90;;;7.20;99.90;;;;;;5074000;28;20080;-81
2023/04/25 06:45:36;;;;;;;10.18;2.13;;;7.40;99.90;;;;;;5075290;28;20473;-81
2023/04/25 06:48:02;;;;;;;6.93;2.28;;;7.50;99.90;;;;;;5074884;28;20485;-82
2023/04/25 06:50:28;;;;;;;5.97;2.25;;;7.50;99.90;;;;;;5075054;28;20048;-82
2023/04/25 06:52:53;;;;;;;11.45;2.60;;;7.50;99.90;;;;;;5074748;28;20048;-82
2023/04/25 06:55:19;;;;;;;7.72;1.98;;;7.50;99.90;;;;;;5073757;28;20131;-82
2023/04/25 06:57:45;;;;;;;7.07;2.05;;;7.50;99.90;;;;;;5074679;28;20044;-82
2023/04/25 07:00:11;;;;;;;8.32;2.67;;;7.40;99.90;;;;;;5074500;28;20044;-82
2023/04/25 07:02:36;;;;;;;9.13;2.77;;;7.40;99.90;;;;;;5074489;28;20092;-82
2023/04/25 07:05:03;;;;;;;7.45;1.75;;;7.50;99.90;;;;;;5074548;28;20076;-82
2023/04/25 07:07:30;;;;;;;;;;;7.70;99.90;;;;;;5073706;28;20055;-82
2023/04/25 07:09:56;;;;;;;6.10;1.98;;;7.90;99.90;;;;;;5074657;28;19927;-82
2023/04/25 07:12:21;;;;;;;11.88;2.25;;;7.80;99.90;;;;;;5073905;28;20052;-82
2023/04/25 07:14:47;;;;;;;8.82;1.80;;;7.90;99.90;;;;;;5073812;28;20067;-82
2023/04/25 07:17:12;;;;;;;4.75;1.50;;;8.00;99.90;;;;;;5074714;28;20048;-82
2023/04/25 07:19:39;;;;;;;6.25;1.98;;;8.00;99.90;;;;;;5073717;28;20040;-82
2023/04/25 07:22:06;;;;;;;3.60;1.50;;;8.70;99.90;;;;;;5074806;28;20098;-82
2023/04/25 07:24:31;;;;;;;5.75;1.77;;;8.60;99.90;;;;;;5073319;28;20040;-82
2023/04/25 07:26:57;;;;;;;6.15;1.63;;;9.30;99.90;;;;;;5074528;28;20098;-82
2023/04/25 07:29:23;;;;;;;5.22;1.38;;;8.70;99.90;;;;;;5073053;28;20055;-82
2023/04/25 07:31:49;;;;;;;8.70;1.50;;;9.00;99.90;;;;;;5072946;28;20037;-82
2023/04/25 07:34:15;;;;;;;6.30;1.70;;;8.50;99.90;;;;;;5089803;28;20131;-82
2023/04/25 07:36:41;;;;;;;9.00;1.50;;;8.50;99.90;;;;;;5073956;28;20502;-82
2023/04/25 07:39:08;;;;;;;5.72;1.55;;;8.40;99.90;;;;;;5072468;28;20139;-82
2023/04/25 07:41:34;;;;;;;5.40;1.83;;;8.60;99.90;;;;;;5073487;28;20075;-84
2023/04/25 07:44:00;;;;;;;4.60;1.55;;;8.50;99.90;;;;;;5072783;28;20044;-87
2023/04/25 07:46:26;;;;;;;6.07;2.03;;;8.60;99.90;;;;;;5071822;28;20046;-82
2023/04/25 07:48:51;;;;;;;4.78;1.58;;;8.70;99.90;;;;;;5071997;28;20446;-82
2023/04/25 07:51:19;;;;;;;3.90;1.50;;;8.70;99.90;;;;;;5071042;28;20064;-82
2023/04/25 07:53:45;;;;;;;5.70;1.60;;;8.90;99.90;;;;;;5072216;28;20049;-82
2023/04/25 07:56:11;;;;;;;6.75;1.75;;;8.80;99.90;;;;;;5072738;28;20044;-82
2023/04/25 07:58:37;;;;;;;4.50;1.42;;;9.30;99.90;;;;;;5073801;28;20040;-83
2023/04/25 08:01:03;;;;;;;4.85;1.83;;;8.60;99.90;;;;;;5073557;28;20044;-82
2023/04/25 08:03:28;;;;;;;6.07;2.25;;;8.70;99.90;;;;;;5089823;28;20044;-80
2023/04/25 08:05:54;;;;;;;5.40;1.67;;;9.60;99.90;;;;;;5073757;28;20042;-82
2023/04/25 08:08:19;;;;;;;8.10;2.10;;;8.90;99.90;;;;;;5072329;28;20056;-82
2023/04/25 08:10:45;;;;;;;7.90;1.73;;;9.00;99.90;;;;;;5073664;28;20132;-82
2023/04/25 08:13:10;;;;;;;10.38;1.98;;;9.20;99.90;;;;;;5074130;28;20138;-82
2023/04/25 08:15:36;;;;;;;8.40;1.40;;;9.40;99.90;;;;;;5072482;28;20484;-81
2023/04/25 08:18:02;;;;;;;5.93;1.33;;;9.60;99.90;;;;;;5073487;28;20063;-81
2023/04/25 08:20:28;;;;;;;5.18;1.50;;;9.60;99.90;;;;;;5073613;28;20048;-82
2023/04/25 08:22:53;;;;;;;5.70;1.35;;;9.50;99.90;;;;;;5073468;28;20538;-82
2023/04/25 08:25:19;;;;;;;7.80;1.45;;;9.40;99.90;;;;;;5073943;28;20032;-82
2023/04/25 08:27:45;;;;;;;7.97;1.48;;;9.50;99.90;;;;;;5073528;28;20036;-81
2023/04/25 08:30:11;;;;;;;6.82;1.50;;;9.40;99.90;;;;;;5073768;28;20043;-81
2023/04/25 08:32:38;;;;;;;4.93;1.30;;;9.50;99.90;;;;;;5077443;28;20058;-82
2023/04/25 08:35:05;;;;;;;3.13;1.42;;;10.10;99.90;;;;;;5077387;28;20463;-81
2023/04/25 08:37:30;;;;;;;9.00;1.30;;;9.70;99.90;;;;;;5077257;28;20045;-81
2023/04/25 08:39:56;;;;;;;5.82;1.27;;;9.80;99.90;;;;;;5077845;28;20458;-83
2023/04/25 08:42:23;;;;;;;3.83;1.27;;;9.60;99.90;;;;;;5077717;28;20045;-82
2023/04/25 08:44:49;;;;;;;8.27;1.30;;;10.30;99.90;;;;;;5077313;28;20040;-82
2023/04/25 08:47:15;;;;;;;5.90;1.60;;;9.30;99.90;;;;;;5077277;28;20048;-82
2023/04/25 08:49:46;;;;;;;3.00;1.10;;;9.20;99.90;;;;;;5077017;28;20064;-81
2023/04/25 08:52:13;;;;;;;3.90;0.90;;;9.00;99.90;;;;;;5077159;28;20394;-82
2023/04/25 08:54:43;;;;;;;2.28;1.10;;;8.70;99.90;;;;;;5077033;28;20427;-82
2023/04/25 08:57:11;;;;;;;2.20;1.00;;;8.40;99.90;;;;;;5076938;28;20037;-82
2023/04/25 08:59:39;;;;;;;1.67;1.00;;;8.70;99.90;;;;;;5076998;28;20106;-82
2023/04/25 09:02:04;;;;;;;2.25;1.38;;;8.10;99.90;;;;;;5076898;28;20052;-81
2023/04/25 09:04:33;;;;;;;4.78;1.25;;;8.00;99.90;;;;;;5076876;28;20040;-82
2023/04/25 09:06:59;;;;;;;2.47;1.25;;;8.10;99.90;;;;;;5076832;28;20041;-82
2023/04/25 09:09:24;;;;;;;2.03;1.05;;;8.20;99.90;;;;;;5076923;28;20427;-82
2023/04/25 09:11:50;;;;;;;8.38;1.10;;;8.40;99.90;;;;;;5092734;28;20036;-82
2023/04/25 09:14:25;;;;;;;4.15;1.35;;;8.50;99.90;;;;;;5076760;28;20037;-82
2023/04/25 09:16:57;;;;;;;5.72;1.40;;;9.20;99.90;;;;;;5075469;28;20119;-82
2023/04/25 09:19:25;;;;;;;4.20;1.27;;;9.10;99.90;;;;;;5076525;28;20053;-82
2023/04/25 09:21:53;;;;;;;4.43;1.50;;;9.20;99.90;;;;;;5076569;28;20059;-82
2023/04/25 09:24:38;;;;;;;4.55;1.20;;;10.00;99.90;;;;;;5076951;28;20052;-82
2023/04/25 09:27:12;;;;;;;2.90;1.10;;;9.60;99.90;;;;;;5076491;28;20036;-82
2023/04/25 09:29:40;;;;;;;5.07;1.25;;;9.60;99.90;;;;;;5076607;28;20090;-81
2023/04/25 09:32:23;;;;;;;3.08;1.10;;;9.40;99.90;;;;;;5076337;28;20041;-82
2023/04/25 09:34:55;;;;;;;3.97;1.17;;;9.30;99.90;;;;;;5076435;28;20127;-81
2023/04/25 09:37:23;;;;;;;4.13;1.30;;;9.50;99.90;;;;;;5076255;28;20070;-81
2023/04/25 09:40:02;;;;;;;3.42;1.30;;;9.60;99.90;;;;;;5058606;28;20052;-81
2023/04/25 09:42:31;;;;;;;4.32;1.45;;;9.70;99.90;;;;;;5075120;28;20048;-81
2023/04/25 09:44:58;;;;;;;6.75;1.42;;;9.80;99.90;;;;;;5076546;28;20143;-82
2023/04/25 09:47:25;;;;;;;6.68;1.13;;;10.00;99.90;;;;;;5076178;28;20040;-82
2023/04/25 09:49:52;;;;;;;2.33;1.10;;;9.90;99.90;;;;;;5076168;28;20053;-82
2023/04/25 09:52:19;;;;;;;2.95;1.00;;;9.80;99.90;;;;;;5075987;28;20056;-81
2023/04/25 09:54:47;;;;;;;5.47;1.23;;;9.50;99.90;;;;;;5075925;28;20082;-82
2023/04/25 09:57:14;;;;;;;3.17;1.30;;;9.20;99.90;;;;;;5075925;28;20041;-81
2023/04/25 09:59:42;;;;;;;;;;;9.00;99.90;;;;;;5075942;28;20519;-81
2023/04/25 10:02:09;;;;;;;;;;;8.80;99.90;;;;;;5076236;28;19924;-82
2023/04/25 10:04:35;;;;;;;3.55;1.40;;;8.60;99.90;;;;;;5075919;28;20021;-81
2023/04/25 10:07:05;;;;;;;2.50;1.15;;;8.70;99.90;;;;;;5074607;28;20043;-81
2023/04/25 10:09:34;;;;;;;3.53;1.25;;;8.50;99.90;;;;;;5057803;28;20051;-82
2023/04/25 10:12:00;;;;;;;3.63;1.13;;;9.00;99.90;;;;;;5075962;28;20377;-82
2023/04/25 10:14:26;;;;;;;2.42;1.40;;;8.90;99.90;;;;;;5076208;28;20051;-81
2023/04/25 10:16:56;;;;;;;5.47;1.35;;;9.20;99.90;;;;;;5075712;28;20041;-81
2023/04/25 10:19:22;;;;;;;3.70;1.33;;;9.50;99.90;;;;;;5074278;28;20079;-81
2023/04/25 10:22:30;;;;;;;8.52;1.30;;;9.70;99.90;;;;;;5075594;28;20048;-81
2023/04/25 10:24:57;;;;;;;2.05;1.10;;;9.80;99.90;;;;;;5075894;28;20087;-81
2023/04/25 10:27:23;;;;;;;6.43;1.92;;;10.00;99.90;;;;;;5075432;28;20051;-82
2023/04/25 10:30:04;;;;;;;2.88;0.98;;;10.30;99.90;;;;;;5074485;28;20044;-81
2023/04/25 10:32:31;;;;;;;1.33;1.00;;;10.30;99.90;;;;;;5074039;28;20080;-81
2023/04/25 10:34:56;;;;;;;4.63;1.20;;;10.60;99.90;;;;;;5075254;28;20056;-82
2023/04/25 10:37:23;;;;;;;3.17;1.00;;;10.80;99.90;;;;;;5075092;28;20054;-81
2023/04/25 10:39:49;;;;;;;;;;;11.00;99.90;;;;;;5075993;28;20088;-81
2023/04/25 10:42:14;;;;;;;4.95;1.58;;;11.00;99.90;;;;;;5076493;28;19974;-82
2023/04/25 10:44:40;;;;;;;4.53;1.42;;;10.40;99.90;;;;;;5075135;28;20051;-80
2023/04/25 10:47:08;;;;;;;6.15;1.20;;;9.90;99.90;;;;;;5074953;28;20127;-81
2023/04/25 10:49:41;;;;;;;3.25;1.20;;;9.40;99.90;;;;;;5040682;28;20131;-81
2023/04/25 10:52:15;;;;;;;2.75;1.17;;;9.10;99.90;;;;;;5075572;28;20048;-81
2023/04/25 10:55:03;;;;;;;3.60;1.50;;;8.90;99.90;;;;;;5074714;28;20044;-82
2023/04/25 10:57:41;;;;;;;4.10;1.73;;;8.80;99.90;;;;;;5073590;28;20049;-82
2023/04/25 11:00:11;;;;;;;4.18;1.60;;;9.00;99.90;;;;;;5075203;28;20131;-80
2023/04/25 11:02:57;;;;;;;4.85;1.10;;;9.20;99.90;;;;;;5074667;28;20098;-81
2023/04/25 11:05:34;;;;;;;2.90;1.30;;;9.50;99.90;;;;;;5074756;28;20052;-81
2023/04/25 11:08:03;;;;;;;;;;;9.70;99.90;;;;;;5075091;28;20051;-82
2023/04/25 11:10:35;;;;;;;2.35;1.20;;;9.90;99.90;;;;;;5076847;28;20015;-82
2023/04/25 11:13:01;;;;;;;2.25;1.13;;;10.00;99.90;;;;;;5077188;28;20132;-81
2023/04/25 11:15:27;;;;;;;3.97;1.30;;;9.90;99.90;;;;;;5077002;28;20071;-82
2023/04/25 11:17:53;;;;;;;4.05;1.30;;;10.00;99.90;;;;;;5075656;28;20080;-83
2023/04/25 11:20:19;;;;;;;4.53;1.30;;;10.30;99.90;;;;;;5075140;28;20044;-81
2023/04/25 11:22:46;;;;;;;5.47;1.48;;;10.30;99.90;;;;;;5076039;28;20067;-81
2023/04/25 11:25:14;;;;;;;3.10;1.10;;;10.50;99.90;;;;;;5074921;28;20431;-81
2023/04/25 11:27:53;;;;;;;5.15;1.35;;;10.50;99.90;;;;;;5075735;28;20091;-81
2023/04/25 11:30:20;;;;;;;6.68;1.70;;;10.40;99.90;;;;;;5058840;28;20044;-81
2023/04/25 11:32:46;;;;;;;6.30;1.42;;;10.20;99.90;;;;;;5077005;28;20504;-81
2023/04/25 11:35:12;;;;;;;6.15;1.60;;;9.90;99.90;;;;;;5075047;28;20044;-81
2023/04/25 11:37:43;;;;;;;6.63;1.30;;;9.80;99.90;;;;;;5074156;28;20446;-82
2023/04/25 11:40:09;;;;;;;6.65;1.70;;;9.80;99.90;;;;;;5074239;28;20123;-81
2023/04/25 11:42:53;;;;;;;7.40;1.67;;;9.90;99.90;;;;;;5072920;28;20063;-81
2023/04/25 11:45:19;;;;;;;3.72;1.25;;;10.10;99.90;;;;;;5073107;28;20045;-82
2023/04/25 11:47:46;;;;;;;3.90;1.35;;;9.90;99.90;;;;;;5074562;28;20127;-82
2023/04/25 11:50:11;;;;;;;3.95;1.10;;;9.50;99.90;;;;;;5074356;28;20123;-81
2023/04/25 11:52:45;;;;;;;3.65;1.10;;;9.50;99.90;;;;;;5074548;28;20127;-82
2023/04/25 11:55:15;;;;;;;5.78;1.25;;;8.50;99.90;;;;;;5073919;28;20048;-82
2023/04/25 11:57:42;;;;;;;3.58;1.10;;;8.40;99.90;;;;;;5073799;28;20048;-82
2023/04/25 12:00:17;;;;;;;6.85;1.42;;;8.30;99.90;;;;;;5073836;28;20169;-82
2023/04/25 12:02:53;;;;;;;2.50;0.90;;;8.40;99.90;;;;;;5073918;28;20123;-82
2023/04/25 12:05:20;;;;;;;4.90;1.77;;;8.90;99.90;;;;;;5073498;28;20541;-82
2023/04/25 12:07:46;;;;;;;8.73;2.03;;;8.70;99.90;;;;;;5072760;28;20037;-82
2023/04/25 12:10:14;;;;;;;7.57;1.57;;;9.10;99.90;;;;;;5073398;28;20041;-81
2023/04/25 12:12:44;;;;;;;2.92;1.20;;;9.60;99.90;;;;;;5076614;28;20053;-81
2023/04/25 12:15:21;;;;;;;4.60;1.10;;;9.90;99.90;;;;;;5077352;28;20580;-82
2023/04/25 12:17:48;;;;;;;5.17;1.37;;;10.30;99.90;;;;;;5077904;28;20040;-82
2023/04/25 12:20:19;;;;;;;6.20;1.40;;;10.60;99.90;;;;;;5075528;28;20318;-81
2023/04/25 12:22:47;;;;;;;5.60;1.33;;;11.40;99.90;;;;;;5076541;28;20044;-80
2023/04/25 12:25:13;;;;;;;2.47;1.27;;;10.80;99.90;;;;;;5076047;28;20538;-80
2023/04/25 12:27:41;;;;;;;6.53;1.38;;;10.80;99.90;;;;;;5073537;28;20044;-81
2023/04/25 12:30:08;;;;;;;5.10;1.40;;;10.80;99.90;;;;;;5073607;28;20051;-80
2023/04/25 12:32:33;;;;;;;6.33;1.53;;;10.70;99.90;;;;;;5074903;28;20040;-79
2023/04/25 12:34:59;;;;;;;6.15;1.50;;;10.70;99.90;;;;;;5074021;28;20120;-80
2023/04/25 12:37:24;;;;;;;3.58;1.15;;;10.60;99.90;;;;;;5073312;28;20098;-79
2023/04/25 12:39:50;;;;;;;4.03;1.40;;;10.80;99.90;;;;;;5074285;28;20047;-83
2023/04/25 12:42:16;;;;;;;5.38;1.40;;;11.00;99.90;;;;;;5075887;28;20441;-79
2023/04/25 12:44:41;;;;;;;4.78;2.10;;;11.40;99.90;;;;;;5074557;28;20072;-79
2023/04/25 12:47:07;;;;;;;10.30;1.63;;;11.30;99.90;;;;;;5073420;28;20090;-79
2023/04/25 12:49:33;;;;;;;2.97;1.40;;;11.80;99.90;;;;;;5073262;28;20064;-80
2023/04/25 12:51:59;;;;;;;7.13;1.50;;;12.00;99.90;;;;;;5073942;28;20048;-79
2023/04/25 12:54:25;;;;;;;6.38;1.63;;;12.00;99.90;;;;;;5073795;28;20084;-80